AAL2108 KPHX-KDFW
Flight info
| Callsign | AAL2108 |
|---|---|
| Flight time | 1h 45m |
| Altitude | 37000 |
| Route | BROAK1 MAXXO TXO TURKI VKTRY2 |
| Aircraft | A321/M-SDE3FGHIRWY/LB1 |
Departure
| Time | 2026-05-03 22:15 |
|---|---|
| Airport | Phoenix Sky Harbor International Airport (KPHX) |
Arrival
| Time | 2026-05-04 00:00 |
|---|---|
| Airport | Dallas Fort Worth International Airport (KDFW) |
| Time | Latitude | Longitude | Altitude | Speed | Heading |
|---|---|---|---|---|---|
| 2026-05-03 21:01 | 33.43755 | -112.00130 | 1131 ft | 0 kts | 268° |
| 2026-05-03 21:15 | 33.43755 | -112.00129 | 1131 ft | 0 kts | 268° |
| 2026-05-03 21:41 | 33.43755 | -112.00128 | 1131 ft | 0 kts | 268° |
| 2026-05-03 22:05 | 33.43754 | -112.00124 | 1131 ft | 4 kts | 251° |
| 2026-05-03 22:05 | 33.43754 | -112.00112 | 1131 ft | 4 kts | 276° |
| 2026-05-03 22:05 | 33.43746 | -112.00086 | 1131 ft | 4 kts | 327° |
| 2026-05-03 22:06 | 33.43724 | -112.00077 | 1131 ft | 2 kts | 359° |
| 2026-05-03 22:06 | 33.43723 | -112.00077 | 1131 ft | 0 kts | 360° |
| 2026-05-03 22:08 | 33.43724 | -112.00077 | 1131 ft | 1 kts | 360° |
| 2026-05-03 22:08 | 33.43733 | -112.00077 | 1135 ft | 2 kts | 0° |
| 2026-05-03 22:08 | 33.43751 | -112.00077 | 1136 ft | 3 kts | 0° |
| 2026-05-03 22:09 | 33.43777 | -112.00077 | 1134 ft | 4 kts | 0° |
| 2026-05-03 22:09 | 33.43811 | -112.00077 | 1134 ft | 5 kts | 0° |
| 2026-05-03 22:09 | 33.43852 | -112.00077 | 1135 ft | 6 kts | 0° |
| 2026-05-03 22:10 | 33.43907 | -111.99955 | 1133 ft | 12 kts | 86° |
| 2026-05-03 22:10 | 33.43907 | -111.99854 | 1132 ft | 13 kts | 92° |
| 2026-05-03 22:10 | 33.43904 | -111.99745 | 1135 ft | 14 kts | 90° |
| 2026-05-03 22:10 | 33.43904 | -111.99620 | 1135 ft | 15 kts | 90° |
| 2026-05-03 22:11 | 33.43905 | -111.99489 | 1136 ft | 16 kts | 90° |
| 2026-05-03 22:11 | 33.43904 | -111.99351 | 1132 ft | 17 kts | 89° |
| 2026-05-03 22:11 | 33.43885 | -111.99242 | 1134 ft | 13 kts | 138° |
| 2026-05-03 22:11 | 33.43793 | -111.99228 | 1135 ft | 14 kts | 180° |
| 2026-05-03 22:12 | 33.43690 | -111.99228 | 1133 ft | 16 kts | 180° |
| 2026-05-03 22:12 | 33.43575 | -111.99230 | 1133 ft | 17 kts | 179° |
| 2026-05-03 22:12 | 33.43453 | -111.99229 | 1135 ft | 18 kts | 180° |
| 2026-05-03 22:12 | 33.43333 | -111.99229 | 1136 ft | 17 kts | 180° |
| 2026-05-03 22:13 | 33.43242 | -111.99238 | 1136 ft | 12 kts | 199° |
| 2026-05-03 22:13 | 33.43174 | -111.99304 | 1134 ft | 12 kts | 226° |
| 2026-05-03 22:13 | 33.43117 | -111.99371 | 1139 ft | 12 kts | 224° |
| 2026-05-03 22:13 | 33.43104 | -111.99435 | 1136 ft | 0 kts | 270° |
| 2026-05-03 22:14 | 33.43103 | -111.99576 | 1139 ft | 50 kts | 270° |
| 2026-05-03 22:14 | 33.43105 | -112.00282 | 1134 ft | 117 kts | 270° |
| 2026-05-03 22:14 | 33.43106 | -112.01457 | 1133 ft | 167 kts | 270° |
| 2026-05-03 22:14 | 33.43106 | -112.02845 | 1733 ft | 164 kts | 270° |
| 2026-05-03 22:15 | 33.43051 | -112.04219 | 2387 ft | 166 kts | 267° |
| 2026-05-03 22:15 | 33.42977 | -112.05589 | 2945 ft | 166 kts | 268° |
| 2026-05-03 22:15 | 33.42902 | -112.07037 | 3147 ft | 185 kts | 269° |
| 2026-05-03 22:15 | 33.42569 | -112.08609 | 3291 ft | 205 kts | 249° |
| 2026-05-03 22:16 | 33.42016 | -112.10262 | 3408 ft | 222 kts | 250° |
| 2026-05-03 22:16 | 33.41441 | -112.12070 | 3515 ft | 245 kts | 249° |
| 2026-05-03 22:16 | 33.40818 | -112.14051 | 3841 ft | 260 kts | 249° |
| 2026-05-03 22:16 | 33.40172 | -112.16104 | 4438 ft | 266 kts | 246° |
| 2026-05-03 22:17 | 33.39197 | -112.17933 | 5021 ft | 268 kts | 218° |
| 2026-05-03 22:17 | 33.37518 | -112.18831 | 5633 ft | 269 kts | 185° |
| 2026-05-03 22:17 | 33.35655 | -112.18628 | 6253 ft | 272 kts | 166° |
| 2026-05-03 22:17 | 33.33839 | -112.17924 | 6921 ft | 275 kts | 160° |
| 2026-05-03 22:18 | 33.32055 | -112.17080 | 7576 ft | 277 kts | 159° |
| 2026-05-03 22:18 | 33.30259 | -112.16206 | 8207 ft | 280 kts | 156° |
| 2026-05-03 22:18 | 33.28620 | -112.14929 | 8799 ft | 285 kts | 141° |
| 2026-05-03 22:18 | 33.27220 | -112.13234 | 9410 ft | 288 kts | 136° |
| 2026-05-03 22:19 | 33.25879 | -112.11450 | 9994 ft | 292 kts | 128° |
| 2026-05-03 22:19 | 33.24895 | -112.09323 | 10381 ft | 307 kts | 113° |
| 2026-05-03 22:19 | 33.24450 | -112.06738 | 10516 ft | 332 kts | 94° |
| 2026-05-03 22:19 | 33.24674 | -112.03904 | 10732 ft | 352 kts | 84° |
| 2026-05-03 22:20 | 33.25036 | -112.00987 | 11248 ft | 358 kts | 84° |
| 2026-05-03 22:20 | 33.25398 | -111.98029 | 11844 ft | 362 kts | 84° |
| 2026-05-03 22:20 | 33.25780 | -111.95039 | 12436 ft | 366 kts | 80° |
| 2026-05-03 22:20 | 33.26516 | -111.92104 | 13035 ft | 372 kts | 69° |
| 2026-05-03 22:21 | 33.27670 | -111.89308 | 13625 ft | 378 kts | 63° |
| 2026-05-03 22:21 | 33.28900 | -111.86519 | 14232 ft | 382 kts | 63° |
| 2026-05-03 22:21 | 33.30122 | -111.83737 | 14792 ft | 386 kts | 63° |
| 2026-05-03 22:21 | 33.31374 | -111.80878 | 15378 ft | 390 kts | 63° |
| 2026-05-03 22:22 | 33.32634 | -111.77987 | 15941 ft | 394 kts | 63° |
| 2026-05-03 22:22 | 33.33909 | -111.75064 | 16493 ft | 399 kts | 63° |
| 2026-05-03 22:22 | 33.35195 | -111.72113 | 17035 ft | 402 kts | 63° |
| 2026-05-03 22:22 | 33.36182 | -111.68975 | 17572 ft | 405 kts | 79° |
| 2026-05-03 22:23 | 33.36665 | -111.65644 | 18098 ft | 408 kts | 82° |
| 2026-05-03 22:23 | 33.37117 | -111.62272 | 18592 ft | 413 kts | 82° |
| 2026-05-03 22:23 | 33.37557 | -111.58906 | 19075 ft | 417 kts | 82° |
| 2026-05-03 22:23 | 33.38002 | -111.55455 | 19530 ft | 423 kts | 82° |
| 2026-05-03 22:24 | 33.38450 | -111.51960 | 19998 ft | 427 kts | 82° |
| 2026-05-03 22:24 | 33.38904 | -111.48432 | 20449 ft | 432 kts | 82° |
| 2026-05-03 22:24 | 33.39367 | -111.44861 | 20891 ft | 437 kts | 82° |
| 2026-05-03 22:24 | 33.39837 | -111.41252 | 21350 ft | 441 kts | 82° |
| 2026-05-03 22:25 | 33.40314 | -111.37605 | 21783 ft | 446 kts | 81° |
| 2026-05-03 22:25 | 33.40797 | -111.33925 | 22202 ft | 450 kts | 82° |
| 2026-05-03 22:25 | 33.41283 | -111.30210 | 22617 ft | 454 kts | 82° |
| 2026-05-03 22:25 | 33.41764 | -111.26508 | 23008 ft | 458 kts | 82° |
| 2026-05-03 22:26 | 33.42251 | -111.22725 | 23394 ft | 462 kts | 82° |
| 2026-05-03 22:26 | 33.42739 | -111.18898 | 23759 ft | 467 kts | 82° |
| 2026-05-03 22:26 | 33.43232 | -111.15043 | 24136 ft | 471 kts | 82° |
| 2026-05-03 22:26 | 33.43729 | -111.11146 | 24496 ft | 475 kts | 82° |
| 2026-05-03 22:27 | 33.44229 | -111.07224 | 24845 ft | 479 kts | 82° |
| 2026-05-03 22:27 | 33.44733 | -111.03275 | 25174 ft | 482 kts | 82° |
| 2026-05-03 22:27 | 33.45240 | -110.99292 | 25505 ft | 486 kts | 82° |
| 2026-05-03 22:27 | 33.45749 | -110.95279 | 25850 ft | 489 kts | 81° |
| 2026-05-03 22:28 | 33.46252 | -110.91296 | 26165 ft | 493 kts | 81° |
| 2026-05-03 22:28 | 33.46764 | -110.87228 | 26502 ft | 495 kts | 81° |
| 2026-05-03 22:28 | 33.47279 | -110.83140 | 26811 ft | 498 kts | 81° |
| 2026-05-03 22:28 | 33.47796 | -110.79016 | 27122 ft | 502 kts | 81° |
| 2026-05-03 22:29 | 33.48315 | -110.74874 | 27441 ft | 505 kts | 81° |
| 2026-05-03 22:29 | 33.48835 | -110.70704 | 27717 ft | 508 kts | 81° |
| 2026-05-03 22:29 | 33.49356 | -110.66502 | 27997 ft | 511 kts | 81° |
| 2026-05-03 22:29 | 33.49879 | -110.62276 | 28282 ft | 515 kts | 81° |
| 2026-05-03 22:30 | 33.50402 | -110.58022 | 28552 ft | 518 kts | 81° |
| 2026-05-03 22:30 | 33.50921 | -110.53803 | 28819 ft | 521 kts | 81° |
| 2026-05-03 22:30 | 33.51451 | -110.49496 | 29087 ft | 524 kts | 81° |
| 2026-05-03 22:30 | 33.51985 | -110.45164 | 29356 ft | 527 kts | 81° |
| 2026-05-03 22:31 | 33.52521 | -110.40811 | 29609 ft | 530 kts | 81° |
| 2026-05-03 22:31 | 33.53056 | -110.36428 | 29878 ft | 533 kts | 81° |
| 2026-05-03 22:31 | 33.53590 | -110.32019 | 30133 ft | 536 kts | 81° |
| 2026-05-03 22:31 | 33.54122 | -110.27592 | 30381 ft | 539 kts | 81° |
| 2026-05-03 22:32 | 33.54656 | -110.23134 | 30645 ft | 542 kts | 81° |
| 2026-05-03 22:32 | 33.55192 | -110.18648 | 30876 ft | 545 kts | 81° |
| 2026-05-03 22:32 | 33.55720 | -110.14202 | 31134 ft | 546 kts | 81° |
| 2026-05-03 22:32 | 33.56254 | -110.09697 | 31481 ft | 546 kts | 81° |
| 2026-05-03 22:33 | 33.56792 | -110.05193 | 31789 ft | 546 kts | 81° |
| 2026-05-03 22:33 | 33.57331 | -110.00691 | 32103 ft | 547 kts | 81° |
| 2026-05-03 22:33 | 33.57868 | -109.96174 | 32414 ft | 547 kts | 81° |
| 2026-05-03 22:33 | 33.58400 | -109.91653 | 32708 ft | 548 kts | 81° |
| 2026-05-03 22:34 | 33.58930 | -109.87127 | 33034 ft | 548 kts | 81° |
| 2026-05-03 22:34 | 33.59454 | -109.82602 | 33339 ft | 548 kts | 81° |
| 2026-05-03 22:34 | 33.59976 | -109.78069 | 33646 ft | 548 kts | 82° |
| 2026-05-03 22:34 | 33.60491 | -109.73603 | 33951 ft | 549 kts | 81° |
| 2026-05-03 22:35 | 33.61017 | -109.69061 | 34225 ft | 550 kts | 81° |
| 2026-05-03 22:35 | 33.61542 | -109.64523 | 34524 ft | 549 kts | 81° |
| 2026-05-03 22:35 | 33.62068 | -109.59981 | 34822 ft | 549 kts | 81° |
| 2026-05-03 22:35 | 33.62593 | -109.55449 | 35119 ft | 548 kts | 81° |
| 2026-05-03 22:36 | 33.63114 | -109.50918 | 35418 ft | 549 kts | 81° |
| 2026-05-03 22:36 | 33.63629 | -109.46386 | 35717 ft | 548 kts | 81° |
| 2026-05-03 22:36 | 33.64143 | -109.41851 | 35998 ft | 548 kts | 82° |
| 2026-05-03 22:36 | 33.64656 | -109.37314 | 36246 ft | 548 kts | 81° |
| 2026-05-03 22:37 | 33.65166 | -109.32783 | 36516 ft | 548 kts | 81° |
| 2026-05-03 22:37 | 33.65668 | -109.28310 | 36747 ft | 547 kts | 81° |
| 2026-05-03 22:37 | 33.66177 | -109.23789 | 37014 ft | 546 kts | 81° |
| 2026-05-03 22:38 | 33.67184 | -109.14774 | 37128 ft | 543 kts | 81° |
| 2026-05-03 22:38 | 33.68178 | -109.05824 | 37130 ft | 540 kts | 81° |
| 2026-05-03 22:39 | 33.69163 | -108.96882 | 37137 ft | 540 kts | 82° |
| 2026-05-03 22:39 | 33.70136 | -108.87946 | 37136 ft | 540 kts | 81° |
| 2026-05-03 22:40 | 33.71109 | -108.79062 | 37138 ft | 540 kts | 82° |
| 2026-05-03 22:40 | 33.72080 | -108.70127 | 37136 ft | 540 kts | 82° |
| 2026-05-03 22:41 | 33.73035 | -108.61175 | 37137 ft | 541 kts | 82° |
| 2026-05-03 22:41 | 33.73983 | -108.52208 | 37137 ft | 541 kts | 82° |
| 2026-05-03 22:42 | 33.74916 | -108.43309 | 37154 ft | 541 kts | 82° |
| 2026-05-03 22:42 | 33.75861 | -108.34338 | 37155 ft | 542 kts | 81° |
| 2026-05-03 22:43 | 33.76808 | -108.25355 | 37137 ft | 541 kts | 82° |
| 2026-05-03 22:43 | 33.77739 | -108.16373 | 37111 ft | 542 kts | 82° |
| 2026-05-03 22:44 | 33.78653 | -108.07441 | 37122 ft | 543 kts | 82° |
| 2026-05-03 22:44 | 33.79562 | -107.98444 | 37108 ft | 543 kts | 82° |
| 2026-05-03 22:45 | 33.80471 | -107.89435 | 37107 ft | 543 kts | 82° |
| 2026-05-03 22:45 | 33.81380 | -107.80424 | 37095 ft | 543 kts | 82° |
| 2026-05-03 22:46 | 33.82286 | -107.71414 | 37098 ft | 543 kts | 82° |
| 2026-05-03 22:46 | 33.83165 | -107.62468 | 37098 ft | 543 kts | 82° |
| 2026-05-03 22:47 | 33.84044 | -107.53450 | 37087 ft | 542 kts | 82° |
| 2026-05-03 22:47 | 33.84922 | -107.44447 | 37088 ft | 541 kts | 82° |
| 2026-05-03 22:48 | 33.85792 | -107.35444 | 37098 ft | 542 kts | 82° |
| 2026-05-03 22:48 | 33.86644 | -107.26503 | 37081 ft | 541 kts | 82° |
| 2026-05-03 22:49 | 33.87505 | -107.17508 | 37082 ft | 541 kts | 82° |
| 2026-05-03 22:49 | 33.88360 | -107.08516 | 37083 ft | 541 kts | 82° |
| 2026-05-03 22:50 | 33.89205 | -106.99523 | 37074 ft | 541 kts | 82° |
| 2026-05-03 22:50 | 33.90040 | -106.90522 | 37073 ft | 541 kts | 82° |
| 2026-05-03 22:51 | 33.90859 | -106.81579 | 37071 ft | 541 kts | 82° |
| 2026-05-03 22:51 | 33.91681 | -106.72573 | 37071 ft | 541 kts | 82° |
| 2026-05-03 22:52 | 33.92507 | -106.63561 | 37077 ft | 541 kts | 82° |
| 2026-05-03 22:52 | 33.93322 | -106.54538 | 37095 ft | 542 kts | 82° |
| 2026-05-03 22:53 | 33.94124 | -106.45569 | 37094 ft | 543 kts | 82° |
| 2026-05-03 22:53 | 33.94917 | -106.36525 | 37100 ft | 543 kts | 82° |
| 2026-05-03 22:54 | 33.95715 | -106.27474 | 37110 ft | 544 kts | 82° |
| 2026-05-03 22:54 | 33.96504 | -106.18418 | 37120 ft | 544 kts | 82° |
| 2026-05-03 22:55 | 33.97287 | -106.09410 | 37131 ft | 545 kts | 82° |
| 2026-05-03 22:55 | 33.98060 | -106.00332 | 37138 ft | 545 kts | 82° |
| 2026-05-03 22:56 | 33.98822 | -105.91248 | 37156 ft | 545 kts | 82° |
| 2026-05-03 22:56 | 33.99584 | -105.82173 | 37169 ft | 545 kts | 82° |
| 2026-05-03 22:57 | 34.00345 | -105.73079 | 37177 ft | 545 kts | 82° |
| 2026-05-03 22:57 | 34.01092 | -105.64056 | 37172 ft | 545 kts | 82° |
| 2026-05-03 22:58 | 34.01840 | -105.54979 | 37153 ft | 544 kts | 82° |
| 2026-05-03 22:58 | 34.02575 | -105.45908 | 37140 ft | 543 kts | 82° |
| 2026-05-03 22:59 | 34.03294 | -105.36836 | 37134 ft | 543 kts | 82° |
| 2026-05-03 22:59 | 34.04012 | -105.27770 | 37136 ft | 543 kts | 82° |
| 2026-05-03 23:00 | 34.04726 | -105.18759 | 37128 ft | 543 kts | 82° |
| 2026-05-03 23:00 | 34.05432 | -105.09703 | 37117 ft | 543 kts | 82° |
| 2026-05-03 23:01 | 34.06125 | -105.00646 | 37117 ft | 542 kts | 81° |
| 2026-05-03 23:01 | 34.06826 | -104.91599 | 37103 ft | 542 kts | 81° |
| 2026-05-03 23:02 | 34.07516 | -104.82552 | 37097 ft | 541 kts | 81° |
| 2026-05-03 23:02 | 34.08185 | -104.73564 | 37099 ft | 542 kts | 81° |
| 2026-05-03 23:03 | 34.08853 | -104.64496 | 37090 ft | 543 kts | 82° |
| 2026-05-03 23:03 | 34.09528 | -104.55433 | 37066 ft | 542 kts | 81° |
| 2026-05-03 23:04 | 34.10196 | -104.46378 | 37065 ft | 543 kts | 82° |
| 2026-05-03 23:04 | 34.10848 | -104.37290 | 37041 ft | 544 kts | 82° |
| 2026-05-03 23:05 | 34.11382 | -104.29736 | 37045 ft | 544 kts | 81° |
| 2026-05-03 23:05 | 34.12120 | -104.19170 | 37054 ft | 543 kts | 81° |
| 2026-05-03 23:06 | 34.12759 | -104.10077 | 37053 ft | 543 kts | 81° |
| 2026-05-03 23:06 | 34.13286 | -104.02520 | 37041 ft | 544 kts | 81° |
| 2026-05-03 23:07 | 34.13917 | -103.93425 | 37054 ft | 544 kts | 82° |
| 2026-05-03 23:07 | 34.14532 | -103.84330 | 37053 ft | 544 kts | 81° |
| 2026-05-03 23:08 | 34.15132 | -103.75221 | 37055 ft | 544 kts | 82° |
| 2026-05-03 23:08 | 34.15730 | -103.66123 | 37053 ft | 543 kts | 82° |
| 2026-05-03 23:09 | 34.16323 | -103.57101 | 37055 ft | 542 kts | 82° |
| 2026-05-03 23:09 | 34.16918 | -103.48020 | 37055 ft | 543 kts | 82° |
| 2026-05-03 23:10 | 34.17505 | -103.38930 | 37048 ft | 542 kts | 82° |
| 2026-05-03 23:10 | 34.18072 | -103.29860 | 37054 ft | 541 kts | 82° |
| 2026-05-03 23:11 | 34.18631 | -103.20866 | 37062 ft | 540 kts | 82° |
| 2026-05-03 23:11 | 34.19185 | -103.11813 | 37063 ft | 540 kts | 82° |
| 2026-05-03 23:12 | 34.19739 | -103.02764 | 37074 ft | 540 kts | 82° |
| 2026-05-03 23:12 | 34.20288 | -102.93727 | 37077 ft | 539 kts | 82° |
| 2026-05-03 23:13 | 34.20825 | -102.84698 | 37081 ft | 539 kts | 82° |
| 2026-05-03 23:13 | 34.21347 | -102.75742 | 37053 ft | 538 kts | 82° |
| 2026-05-03 23:14 | 34.21867 | -102.66725 | 37056 ft | 538 kts | 82° |
| 2026-05-03 23:14 | 34.22387 | -102.57700 | 37054 ft | 538 kts | 81° |
| 2026-05-03 23:15 | 34.22899 | -102.48672 | 37054 ft | 539 kts | 81° |
| 2026-05-03 23:15 | 34.23403 | -102.39702 | 37051 ft | 538 kts | 81° |
| 2026-05-03 23:16 | 34.23902 | -102.30665 | 37045 ft | 539 kts | 81° |
| 2026-05-03 23:16 | 34.24394 | -102.21633 | 37037 ft | 539 kts | 81° |
| 2026-05-03 23:17 | 34.24881 | -102.12599 | 37043 ft | 538 kts | 81° |
| 2026-05-03 23:17 | 34.25359 | -102.03570 | 37035 ft | 539 kts | 81° |
| 2026-05-03 23:18 | 34.25829 | -101.94594 | 37033 ft | 539 kts | 81° |
| 2026-05-03 23:18 | 34.26289 | -101.85555 | 37035 ft | 539 kts | 81° |
| 2026-05-03 23:19 | 34.26737 | -101.76515 | 37042 ft | 538 kts | 82° |
| 2026-05-03 23:19 | 34.27188 | -101.67489 | 37037 ft | 538 kts | 82° |
| 2026-05-03 23:20 | 34.27629 | -101.58530 | 37039 ft | 537 kts | 82° |
| 2026-05-03 23:20 | 34.28073 | -101.49514 | 37035 ft | 537 kts | 82° |
| 2026-05-03 23:21 | 34.28507 | -101.40513 | 37035 ft | 536 kts | 82° |
| 2026-05-03 23:21 | 34.28932 | -101.31521 | 37022 ft | 535 kts | 82° |
| 2026-05-03 23:22 | 34.29542 | -101.18141 | 37025 ft | 533 kts | 82° |
| 2026-05-03 23:22 | 34.29941 | -101.09191 | 37026 ft | 533 kts | 83° |
| 2026-05-03 23:23 | 34.29415 | -101.00215 | 37018 ft | 538 kts | 95° |
| 2026-05-03 23:23 | 34.28352 | -100.91259 | 37016 ft | 538 kts | 95° |
| 2026-05-03 23:24 | 34.27297 | -100.82370 | 37004 ft | 537 kts | 95° |
| 2026-05-03 23:24 | 34.26238 | -100.73437 | 37006 ft | 537 kts | 95° |
| 2026-05-03 23:25 | 34.25166 | -100.64507 | 37007 ft | 537 kts | 95° |
| 2026-05-03 23:25 | 34.24085 | -100.55577 | 36999 ft | 537 kts | 95° |
| 2026-05-03 23:26 | 34.23011 | -100.46701 | 36998 ft | 538 kts | 95° |
| 2026-05-03 23:26 | 34.21929 | -100.37760 | 36998 ft | 539 kts | 95° |
| 2026-05-03 23:27 | 34.20824 | -100.28811 | 36998 ft | 539 kts | 96° |
| 2026-05-03 23:27 | 34.18798 | -100.20078 | 37001 ft | 542 kts | 109° |
| 2026-05-03 23:28 | 34.16225 | -100.11580 | 36999 ft | 543 kts | 109° |
| 2026-05-03 23:28 | 34.13640 | -100.03015 | 37011 ft | 543 kts | 109° |
| 2026-05-03 23:29 | 34.11052 | -99.94446 | 37008 ft | 543 kts | 109° |
| 2026-05-03 23:29 | 34.08454 | -99.85889 | 37008 ft | 543 kts | 109° |
| 2026-05-03 23:30 | 34.05861 | -99.77394 | 37006 ft | 543 kts | 109° |
| 2026-05-03 23:30 | 34.03250 | -99.68852 | 36705 ft | 543 kts | 109° |
| 2026-05-03 23:31 | 34.01948 | -99.64587 | 36456 ft | 541 kts | 109° |
| 2026-05-03 23:31 | 34.00649 | -99.60336 | 36207 ft | 539 kts | 109° |
| 2026-05-03 23:31 | 33.99352 | -99.56105 | 35955 ft | 537 kts | 110° |
| 2026-05-03 23:31 | 33.98054 | -99.51883 | 35432 ft | 539 kts | 110° |
| 2026-05-03 23:32 | 33.96750 | -99.47653 | 34858 ft | 539 kts | 110° |
| 2026-05-03 23:32 | 33.95444 | -99.43434 | 34388 ft | 536 kts | 110° |
| 2026-05-03 23:32 | 33.94137 | -99.39242 | 33887 ft | 533 kts | 110° |
| 2026-05-03 23:32 | 33.92850 | -99.35133 | 33400 ft | 531 kts | 110° |
| 2026-05-03 23:33 | 33.91550 | -99.30985 | 32918 ft | 528 kts | 110° |
| 2026-05-03 23:33 | 33.90259 | -99.26860 | 32415 ft | 525 kts | 110° |
| 2026-05-03 23:33 | 33.88980 | -99.22762 | 31913 ft | 522 kts | 110° |
| 2026-05-03 23:33 | 33.87714 | -99.18696 | 31590 ft | 515 kts | 110° |
| 2026-05-03 23:34 | 33.86464 | -99.14690 | 31175 ft | 509 kts | 110° |
| 2026-05-03 23:34 | 33.85219 | -99.10720 | 30718 ft | 504 kts | 110° |
| 2026-05-03 23:34 | 33.83987 | -99.06795 | 30310 ft | 499 kts | 110° |
| 2026-05-03 23:34 | 33.82784 | -99.02967 | 29899 ft | 493 kts | 110° |
| 2026-05-03 23:35 | 33.81579 | -98.99142 | 29482 ft | 487 kts | 110° |
| 2026-05-03 23:35 | 33.80383 | -98.95355 | 29046 ft | 482 kts | 110° |
| 2026-05-03 23:35 | 33.79197 | -98.91607 | 28598 ft | 477 kts | 110° |
| 2026-05-03 23:35 | 33.78023 | -98.87901 | 28137 ft | 472 kts | 110° |
| 2026-05-03 23:36 | 33.76859 | -98.84225 | 27695 ft | 468 kts | 110° |
| 2026-05-03 23:36 | 33.75709 | -98.80605 | 27127 ft | 459 kts | 110° |
| 2026-05-03 23:36 | 33.74585 | -98.77070 | 26545 ft | 443 kts | 110° |
| 2026-05-03 23:36 | 33.73496 | -98.73648 | 26212 ft | 437 kts | 110° |
| 2026-05-03 23:37 | 33.72412 | -98.70252 | 25819 ft | 434 kts | 110° |
| 2026-05-03 23:37 | 33.71348 | -98.66933 | 25374 ft | 426 kts | 110° |
| 2026-05-03 23:37 | 33.70300 | -98.63679 | 25011 ft | 413 kts | 110° |
| 2026-05-03 23:37 | 33.69266 | -98.60467 | 24583 ft | 411 kts | 110° |
| 2026-05-03 23:38 | 33.68245 | -98.57274 | 24186 ft | 408 kts | 110° |
| 2026-05-03 23:38 | 33.67241 | -98.54101 | 23773 ft | 406 kts | 110° |
| 2026-05-03 23:38 | 33.66249 | -98.50947 | 23343 ft | 401 kts | 110° |
| 2026-05-03 23:38 | 33.65280 | -98.47873 | 22952 ft | 390 kts | 110° |
| 2026-05-03 23:39 | 33.64320 | -98.44838 | 22526 ft | 388 kts | 110° |
| 2026-05-03 23:39 | 33.63364 | -98.41823 | 22117 ft | 385 kts | 110° |
| 2026-05-03 23:39 | 33.62414 | -98.38830 | 21703 ft | 383 kts | 110° |
| 2026-05-03 23:39 | 33.61479 | -98.35899 | 21308 ft | 380 kts | 110° |
| 2026-05-03 23:40 | 33.60537 | -98.32948 | 20909 ft | 377 kts | 110° |
| 2026-05-03 23:40 | 33.59602 | -98.30018 | 20479 ft | 375 kts | 110° |
| 2026-05-03 23:40 | 33.58672 | -98.27105 | 20066 ft | 372 kts | 111° |
| 2026-05-03 23:40 | 33.57754 | -98.24221 | 19666 ft | 369 kts | 111° |
| 2026-05-03 23:41 | 33.56839 | -98.21352 | 19272 ft | 367 kts | 111° |
| 2026-05-03 23:41 | 33.55927 | -98.18503 | 18838 ft | 365 kts | 111° |
| 2026-05-03 23:41 | 33.55013 | -98.15667 | 18396 ft | 364 kts | 111° |
| 2026-05-03 23:41 | 33.54115 | -98.12885 | 17956 ft | 362 kts | 111° |
| 2026-05-03 23:42 | 33.53210 | -98.10086 | 17593 ft | 358 kts | 111° |
| 2026-05-03 23:42 | 33.52313 | -98.07309 | 17092 ft | 355 kts | 111° |
| 2026-05-03 23:42 | 33.51438 | -98.04598 | 16588 ft | 343 kts | 111° |
| 2026-05-03 23:42 | 33.50571 | -98.01917 | 16228 ft | 345 kts | 111° |
| 2026-05-03 23:43 | 33.49706 | -97.99244 | 15827 ft | 343 kts | 111° |
| 2026-05-03 23:43 | 33.48843 | -97.96585 | 15413 ft | 341 kts | 111° |
| 2026-05-03 23:43 | 33.47985 | -97.93944 | 15002 ft | 339 kts | 111° |
| 2026-05-03 23:43 | 33.47148 | -97.91369 | 14607 ft | 332 kts | 111° |
| 2026-05-03 23:44 | 33.46318 | -97.88794 | 14223 ft | 331 kts | 111° |
| 2026-05-03 23:44 | 33.45496 | -97.86234 | 13810 ft | 328 kts | 111° |
| 2026-05-03 23:44 | 33.44681 | -97.83691 | 13416 ft | 325 kts | 111° |
| 2026-05-03 23:44 | 33.43869 | -97.81171 | 13030 ft | 323 kts | 111° |
| 2026-05-03 23:45 | 33.43061 | -97.78662 | 12644 ft | 322 kts | 111° |
| 2026-05-03 23:45 | 33.42259 | -97.76174 | 12259 ft | 320 kts | 112° |
| 2026-05-03 23:45 | 33.41458 | -97.73700 | 11878 ft | 318 kts | 111° |
| 2026-05-03 23:45 | 33.40664 | -97.71249 | 11503 ft | 312 kts | 112° |
| 2026-05-03 23:46 | 33.39895 | -97.68870 | 11175 ft | 307 kts | 112° |
| 2026-05-03 23:46 | 33.39136 | -97.66521 | 10878 ft | 302 kts | 112° |
| 2026-05-03 23:46 | 33.38312 | -97.64215 | 10622 ft | 300 kts | 120° |
| 2026-05-03 23:46 | 33.37151 | -97.62153 | 10386 ft | 298 kts | 128° |
| 2026-05-03 23:47 | 33.35918 | -97.60155 | 10165 ft | 298 kts | 128° |
| 2026-05-03 23:47 | 33.34694 | -97.58165 | 9872 ft | 297 kts | 128° |
| 2026-05-03 23:47 | 33.33474 | -97.56185 | 9522 ft | 294 kts | 129° |
| 2026-05-03 23:47 | 33.32261 | -97.54232 | 9155 ft | 292 kts | 129° |
| 2026-05-03 23:48 | 33.31053 | -97.52281 | 8805 ft | 292 kts | 129° |
| 2026-05-03 23:48 | 33.29851 | -97.50331 | 8430 ft | 291 kts | 129° |
| 2026-05-03 23:48 | 33.28673 | -97.48411 | 8074 ft | 290 kts | 129° |
| 2026-05-03 23:48 | 33.27644 | -97.46342 | 7714 ft | 291 kts | 115° |
| 2026-05-03 23:49 | 33.27099 | -97.44017 | 7359 ft | 292 kts | 99° |
| 2026-05-03 23:49 | 33.26960 | -97.41593 | 6980 ft | 292 kts | 95° |
| 2026-05-03 23:49 | 33.26844 | -97.39173 | 6612 ft | 291 kts | 95° |
| 2026-05-03 23:49 | 33.26718 | -97.36760 | 6256 ft | 289 kts | 96° |
| 2026-05-03 23:50 | 33.26593 | -97.34366 | 5906 ft | 288 kts | 96° |
| 2026-05-03 23:50 | 33.26466 | -97.31982 | 5532 ft | 288 kts | 96° |
| 2026-05-03 23:50 | 33.26338 | -97.29607 | 5242 ft | 284 kts | 96° |
| 2026-05-03 23:50 | 33.26215 | -97.27297 | 5127 ft | 273 kts | 96° |
| 2026-05-03 23:51 | 33.26100 | -97.25104 | 4956 ft | 265 kts | 96° |
| 2026-05-03 23:51 | 33.25799 | -97.23005 | 4873 ft | 248 kts | 113° |
| 2026-05-03 23:51 | 33.25189 | -97.21145 | 4710 ft | 236 kts | 115° |
| 2026-05-03 23:51 | 33.24596 | -97.19372 | 4558 ft | 224 kts | 115° |
| 2026-05-03 23:52 | 33.24018 | -97.17659 | 4462 ft | 222 kts | 115° |
| 2026-05-03 23:52 | 33.23438 | -97.15951 | 4341 ft | 222 kts | 115° |
| 2026-05-03 23:52 | 33.22857 | -97.14239 | 4221 ft | 222 kts | 115° |
| 2026-05-03 23:52 | 33.22281 | -97.12525 | 4097 ft | 222 kts | 115° |
| 2026-05-03 23:53 | 33.21706 | -97.10820 | 3991 ft | 222 kts | 115° |
| 2026-05-03 23:53 | 33.21130 | -97.09115 | 3957 ft | 220 kts | 115° |
| 2026-05-03 23:53 | 33.20462 | -97.07498 | 4020 ft | 219 kts | 128° |
| 2026-05-03 23:53 | 33.19399 | -97.06230 | 4021 ft | 215 kts | 149° |
| 2026-05-03 23:54 | 33.18027 | -97.05479 | 3928 ft | 218 kts | 168° |
| 2026-05-03 23:54 | 33.16602 | -97.05332 | 3793 ft | 195 kts | 183° |
| 2026-05-03 23:54 | 33.15308 | -97.05339 | 3657 ft | 183 kts | 183° |
| 2026-05-03 23:54 | 33.14028 | -97.05348 | 3617 ft | 184 kts | 183° |
| 2026-05-03 23:55 | 33.12744 | -97.05355 | 3557 ft | 184 kts | 183° |
| 2026-05-03 23:55 | 33.11444 | -97.05362 | 3481 ft | 186 kts | 183° |
| 2026-05-03 23:55 | 33.10154 | -97.05370 | 3399 ft | 185 kts | 183° |
| 2026-05-03 23:55 | 33.08881 | -97.05375 | 3323 ft | 181 kts | 184° |
| 2026-05-03 23:56 | 33.07636 | -97.05381 | 3259 ft | 177 kts | 184° |
| 2026-05-03 23:56 | 33.06418 | -97.05387 | 3170 ft | 178 kts | 183° |
| 2026-05-03 23:56 | 33.05186 | -97.05393 | 3095 ft | 176 kts | 184° |
| 2026-05-03 23:56 | 33.03966 | -97.05400 | 2982 ft | 169 kts | 183° |
| 2026-05-03 23:57 | 33.02852 | -97.05405 | 2801 ft | 154 kts | 183° |
| 2026-05-03 23:57 | 33.01805 | -97.05411 | 2619 ft | 148 kts | 183° |
| 2026-05-03 23:57 | 33.00787 | -97.05418 | 2424 ft | 145 kts | 182° |
| 2026-05-03 23:57 | 32.99788 | -97.05423 | 2241 ft | 143 kts | 183° |
| 2026-05-03 23:58 | 32.98795 | -97.05428 | 2051 ft | 143 kts | 182° |
| 2026-05-03 23:58 | 32.97820 | -97.05433 | 1865 ft | 141 kts | 181° |
| 2026-05-03 23:58 | 32.96839 | -97.05439 | 1681 ft | 140 kts | 180° |
| 2026-05-03 23:58 | 32.95866 | -97.05443 | 1495 ft | 140 kts | 180° |
| 2026-05-03 23:59 | 32.94891 | -97.05449 | 1307 ft | 140 kts | 180° |
| 2026-05-03 23:59 | 32.93911 | -97.05454 | 1117 ft | 141 kts | 180° |
| 2026-05-03 23:59 | 32.92932 | -97.05458 | 936 ft | 141 kts | 181° |
| 2026-05-03 23:59 | 32.91949 | -97.05463 | 744 ft | 142 kts | 181° |
| 2026-05-04 00:00 | 32.90968 | -97.05468 | 619 ft | 134 kts | 181° |
| 2026-05-04 00:00 | 32.90260 | -97.05472 | 616 ft | 60 kts | 180° |
| 2026-05-04 00:00 | 32.90006 | -97.05447 | 616 ft | 20 kts | 157° |
| 2026-05-04 00:00 | 32.89925 | -97.05393 | 630 ft | 13 kts | 149° |
| 2026-05-04 00:01 | 32.89842 | -97.05334 | 624 ft | 14 kts | 149° |
| 2026-05-04 00:01 | 32.89765 | -97.05266 | 626 ft | 13 kts | 114° |
| 2026-05-04 00:01 | 32.89760 | -97.05156 | 616 ft | 14 kts | 91° |
| 2026-05-04 00:01 | 32.89761 | -97.05032 | 616 ft | 15 kts | 90° |
| 2026-05-04 00:02 | 32.89760 | -97.04922 | 620 ft | 12 kts | 90° |
| 2026-05-04 00:02 | 32.89759 | -97.04816 | 618 ft | 13 kts | 90° |
| 2026-05-04 00:02 | 32.89726 | -97.04769 | 627 ft | 8 kts | 171° |
| 2026-05-04 00:02 | 32.89662 | -97.04767 | 624 ft | 10 kts | 180° |
| 2026-05-04 00:03 | 32.89586 | -97.04767 | 626 ft | 12 kts | 180° |
| 2026-05-04 00:03 | 32.89518 | -97.04760 | 625 ft | 7 kts | 147° |
| 2026-05-04 00:03 | 32.89508 | -97.04701 | 621 ft | 8 kts | 90° |
| 2026-05-04 00:03 | 32.89527 | -97.04645 | 630 ft | 6 kts | 67° |
| 2026-05-04 00:04 | 32.89539 | -97.04611 | 616 ft | 3 kts | 69° |
| 2026-05-04 00:04 | 32.89545 | -97.04589 | 616 ft | 2 kts | 70° |
| 2026-05-04 00:04 | 32.89548 | -97.04580 | 616 ft | 1 kts | 69° |
| 2026-05-04 00:04 | 32.89549 | -97.04578 | 616 ft | 0 kts | 69° |
| 2026-05-04 00:13 | 32.89549 | -97.04579 | 616 ft | 0 kts | 69° |
| 2026-05-04 00:19 | 32.89548 | -97.04579 | 616 ft | 0 kts | 69° |